首页
METAR-TAF:

METAR-TAF

机场 :

The Pas, 曼尼托巴, 加拿大

纬度: 53-58N, 经度: 101-06W, 海拔: 271米

当前天气观测

该预报发布于42分钟前的21:00 UTC
风速18节,风向西,有时为28节阵风
温度 16°C
湿度 94%
气压 995 hPa
能見度: 14.5公里
多云层高于1200英尺
阴天层高于8600英尺
小雨

METAR: CYQD 242100Z AUTO 27018G28KT 9SM -RA BKN012 OVC086 16/15 A2939 RMK PCPN 4.2MM PAST HR SLP958 DENSITY ALT 1800FT

时间: 16:42 (21:42 UTC)

预报

该预报发布于26小时和53分钟前的18:49 UTC
预报有效从24日的 19点(UTC)到 25日的 07点(UTC)
风速12节,风向西转西南,有时为22节阵风
能見度: 10公里
少量云层高于1200英尺
散云层高于4000英尺
多云层高于8000英尺
短暂存在
从 24日的 19点(UTC)到 24日的 22点(UTC)
风速15节,风向多变,有时为25节阵风
能見度: 8.0公里
多云层高于800英尺
多云层高于2000英尺, 积雨云.
阴天层高于4000英尺
雷暴, 雨
从 24日的 2200点(UTC)
风速15节,风向西,有时为25节阵风
能見度: 10公里
散云层高于2500英尺
多云层高于4000英尺
小阵雨
短暂存在
从 24日的 22点(UTC)到 25日的 07点(UTC)
阴天层高于2000英尺
几率 30%
从 24日的 22点(UTC)到 25日的 07点(UTC)
风速20节,风向多变,有时为30节阵风
能見度: 8.0公里
阴天层高于2000英尺, 积雨云.
雷暴, 雨

TAF: CYQD 241849Z 2419/2507 25012G22KT P6SM FEW012 SCT040 BKN080 TEMPO 2419/2422 VRB15G25KT 5SM TSRA BKN008 BKN020CB OVC040 FM242200 28015G25KT P6SM -SHRA SCT025 BKN040 TEMPO 2422/2507 OVC020 PROB30 2422/2507 VRB20G30KT 5SM TSRA OVC020CB RMK FCST BASED ON AUTO OBS. NXT FCST BY 250100Z

超过4000个机场的气象观测和天气预报(METAR&TAF报告)。

可查询的气象台以黄色和红色小点在地图上表示。

将鼠标移到小点上方,可查看气象台名称。

然后点击查看天气观测和预报。

如需切换地图:点击带黑十字的绿色按钮放大地图;点击带横线的绿色按钮缩小地图;或者点击绿色箭头查看邻近地区的地图。


METAR-TAF: